Time;durP1;ratioP1;P1;durP2;ratioP2;P2;SDS_P1;SDS_P2;PMS_P1;PMS_P2;Temp;Humidity;BMP_temperature;BMP_pressure;BME280_temperature;BME280_humidity;BME280_pressure;Samples;Min_cycle;Max_cycle;Signal;HPM_P1;HPM_P2
2022/08/09 00:00:00;;;;;;;5.28;3.10;;;;;;;23.03;42.98;94120.16;5123267;28;20057;-75
2022/08/09 00:02:26;;;;;;;5.90;3.03;;;;;;;23.01;43.37;94125.19;5123178;28;20035;-74
2022/08/09 00:04:51;;;;;;;6.95;3.15;;;;;;;22.99;42.97;94132.94;5123152;28;20306;-73
2022/08/09 00:07:17;;;;;;;6.38;2.92;;;;;;;22.97;43.40;94129.81;5123564;28;20024;-74
2022/08/09 00:09:42;;;;;;;4.90;3.28;;;;;;;22.93;43.95;94129.81;5123278;28;20027;-73
2022/08/09 00:12:09;;;;;;;8.88;2.95;;;;;;;22.88;43.83;94134.84;5123340;28;20031;-74
2022/08/09 00:14:35;;;;;;;5.15;2.72;;;;;;;22.78;44.19;94126.28;5123068;28;20043;-74
2022/08/09 00:17:00;;;;;;;8.35;4.15;;;;;;;22.70;44.24;94121.22;5122871;28;20289;-74
2022/08/09 00:19:26;;;;;;;8.55;3.50;;;;;;;22.60;44.09;94120.81;5123164;28;20034;-73
2022/08/09 00:21:51;;;;;;;5.97;3.17;;;;;;;22.58;44.36;94125.84;5123324;28;20020;-74
2022/08/09 00:24:17;;;;;;;7.10;2.90;;;;;;;22.58;44.37;94123.13;5123289;28;20039;-74
2022/08/09 00:26:42;;;;;;;5.13;2.80;;;;;;;22.56;44.55;94119.25;5123175;28;20028;-74
2022/08/09 00:29:08;;;;;;;6.30;2.88;;;;;;;22.48;45.00;94125.81;5122999;28;20086;-74
2022/08/09 00:31:33;;;;;;;6.68;2.75;;;;;;;22.42;45.14;94126.16;5123007;28;20109;-74
2022/08/09 00:33:59;;;;;;;6.65;2.60;;;;;;;22.41;45.05;94124.63;5123183;28;20318;-74
2022/08/09 00:36:25;;;;;;;10.95;2.80;;;;;;;22.41;45.27;94118.41;5122987;28;20091;-74
2022/08/09 00:38:51;;;;;;;8.02;2.83;;;;;;;22.33;45.42;94116.84;5123055;28;20027;-74
2022/08/09 00:41:21;;;;;;;7.18;2.80;;;;;;;22.23;45.68;94123.75;5123227;28;20085;-74
2022/08/09 00:43:50;;;;;;;6.28;3.47;;;;;;;22.26;46.11;94133.09;5123084;28;20019;-73
2022/08/09 00:46:16;;;;;;;5.07;3.15;;;;;;;22.21;46.33;94117.91;5122835;28;20130;-73
2022/08/09 00:48:42;;;;;;;6.18;3.08;;;;;;;22.17;46.37;94128.75;5123000;28;20020;-73
2022/08/09 00:51:08;;;;;;;6.13;3.05;;;;;;;22.15;46.46;94130.28;5123265;28;20057;-73
2022/08/09 00:53:38;;;;;;;7.15;3.30;;;;;;;22.13;46.39;94138.81;5126301;28;20024;-72
2022/08/09 00:56:04;;;;;;;7.32;3.30;;;;;;;22.11;46.89;94146.56;5126595;27;20364;-72
2022/08/09 00:58:30;;;;;;;8.88;3.72;;;;;;;22.08;46.93;94141.09;5126644;28;20133;-72
2022/08/09 01:00:56;;;;;;;5.93;3.70;;;;;;;22.09;47.13;94150.81;5126584;28;20221;-72
2022/08/09 01:04:04;;;;;;;6.82;3.28;;;;;;;22.05;46.39;94156.22;5126734;28;20051;-72
2022/08/09 01:06:38;;;;;;;9.48;3.28;;;;;;;21.90;45.98;94155.34;5126414;28;20042;-72
2022/08/09 01:09:21;;;;;;;7.22;3.00;;;;;;;21.91;46.41;94156.13;5126295;28;20038;-72
2022/08/09 01:11:49;;;;;;;5.72;2.85;;;;;;;21.86;46.95;94157.28;5126401;28;20103;-73
2022/08/09 01:14:20;;;;;;;8.13;3.28;;;;;;;21.87;47.85;94158.03;5126338;28;20222;-72
2022/08/09 01:16:49;;;;;;;5.15;3.10;;;;;;;21.90;48.02;94149.94;5126122;28;20090;-72
2022/08/09 01:19:35;;;;;;;5.22;3.45;;;;;;;21.90;48.27;94149.94;5126227;28;20028;-72
2022/08/09 01:22:28;;;;;;;5.25;3.42;;;;;;;21.84;48.39;94149.50;5126135;28;20027;-73
2022/08/09 01:25:20;;;;;;;10.70;3.88;;;;;;;21.91;48.16;94145.28;5126141;28;20016;-73
2022/08/09 01:27:51;;;;;;;8.75;3.40;;;;;;;21.89;48.12;94140.22;5122778;28;20121;-73
2022/08/09 01:30:20;;;;;;;6.10;3.20;;;;;;;21.93;48.10;94143.72;5126234;28;20259;-73
2022/08/09 01:32:49;;;;;;;7.90;3.58;;;;;;;21.98;47.86;94145.31;5125771;28;20019;-73
2022/08/09 01:35:27;;;;;;;10.45;3.60;;;;;;;22.02;47.33;94129.81;5125899;28;20027;-73
2022/08/09 01:37:57;;;;;;;9.45;4.40;;;;;;;22.08;47.39;94138.38;5125861;28;20020;-73
2022/08/09 01:40:25;;;;;;;8.55;3.60;;;;;;;22.12;48.07;94131.03;5125821;28;20027;-73
2022/08/09 01:42:54;;;;;;;5.32;3.20;;;;;;;22.15;48.15;94125.63;5126018;28;20068;-73
2022/08/09 01:45:20;;;;;;;6.38;3.50;;;;;;;22.13;48.08;94116.31;5125872;28;20050;-73
2022/08/09 01:47:47;;;;;;;6.28;3.50;;;;;;;22.16;47.92;94100.03;5125698;28;20023;-73
2022/08/09 01:50:12;;;;;;;7.65;3.00;;;;;;;22.19;47.79;94088.44;5125629;28;20024;-73
2022/08/09 01:52:39;;;;;;;6.63;3.45;;;;;;;22.23;48.12;94089.25;5125476;28;20037;-73
2022/08/09 01:55:05;;;;;;;7.97;3.72;;;;;;;22.24;47.84;94069.06;5125280;28;20051;-73
2022/08/09 01:57:40;;;;;;;6.28;3.08;;;;;;;22.25;47.82;94059.00;5125449;28;20019;-73
2022/08/09 02:00:08;;;;;;;13.00;3.50;;;;;;;22.24;48.15;94068.31;5125551;28;20019;-73
2022/08/09 02:02:37;;;;;;;11.98;3.42;;;;;;;22.27;48.34;94064.03;5125201;28;20027;-73
2022/08/09 02:05:09;;;;;;;7.10;3.30;;;;;;;22.34;48.06;94074.94;5125369;28;20199;-74
2022/08/09 02:07:40;;;;;;;10.73;3.30;;;;;;;22.35;47.51;94076.50;5125297;28;20027;-73
2022/08/09 02:10:46;;;;;;;5.93;2.90;;;;;;;22.42;47.66;94071.09;5125365;28;20072;-73
2022/08/09 02:13:13;;;;;;;7.40;3.05;;;;;;;22.42;46.29;94079.22;5124862;28;20059;-73
2022/08/09 02:15:44;;;;;;;4.75;2.95;;;;;;;22.48;47.13;94091.28;5124972;28;20034;-73
2022/08/09 02:18:10;;;;;;;6.85;3.20;;;;;;;22.48;47.02;94077.69;5124989;27;20106;-74
2022/08/09 02:20:42;;;;;;;6.85;3.28;;;;;;;22.46;47.45;94084.69;5125001;28;20030;-74
2022/08/09 02:23:16;;;;;;;7.25;3.67;;;;;;;22.39;47.13;94088.94;5124982;28;20256;-74
2022/08/09 02:25:44;;;;;;;4.40;3.15;;;;;;;22.33;47.46;94104.03;5124830;28;20215;-74
2022/08/09 02:28:24;;;;;;;5.80;3.30;;;;;;;22.24;47.28;94109.03;5124877;28;20140;-73
2022/08/09 02:31:11;;;;;;;5.30;3.05;;;;;;;22.18;46.86;94111.28;5124865;28;20019;-74
2022/08/09 02:33:40;;;;;;;6.80;3.63;;;;;;;22.13;47.77;94108.19;5124820;28;20104;-74
2022/08/09 02:36:13;;;;;;;10.70;3.92;;;;;;;22.05;47.52;94118.22;5124861;28;20019;-74
2022/08/09 02:38:46;;;;;;;6.53;3.97;;;;;;;21.98;47.44;94118.97;5124557;28;20015;-74
2022/08/09 02:41:16;;;;;;;11.65;3.67;;;;;;;21.98;47.81;94123.59;5124694;28;20023;-74
2022/08/09 02:43:46;;;;;;;10.40;3.33;;;;;;;21.98;48.09;94120.88;5124528;28;20026;-73
2022/08/09 02:46:15;;;;;;;9.40;4.85;;;;;;;22.02;48.05;94124.38;5124577;28;20046;-74
2022/08/09 02:48:43;;;;;;;6.13;3.20;;;;;;;22.03;47.61;94124.03;5124580;28;20023;-74
2022/08/09 02:51:12;;;;;;;11.73;4.72;;;;;;;22.03;48.39;94121.31;5124331;28;20023;-74
2022/08/09 02:53:43;;;;;;;10.38;3.72;;;;;;;22.04;48.22;94124.78;5124124;28;20055;-73
2022/08/09 02:56:10;;;;;;;10.60;4.18;;;;;;;22.07;49.05;94117.84;5124486;28;20020;-74
2022/08/09 02:58:38;;;;;;;8.02;3.88;;;;;;;22.09;48.25;94121.72;5124364;28;20027;-74
2022/08/09 03:01:07;;;;;;;9.52;3.80;;;;;;;22.05;48.28;94126.34;5124292;28;20050;-74
2022/08/09 03:03:35;;;;;;;13.10;3.53;;;;;;;21.97;48.81;94122.06;5123966;28;20038;-74
2022/08/09 03:06:02;;;;;;;9.98;4.88;;;;;;;21.95;48.78;94121.66;5124072;28;20042;-74
2022/08/09 03:08:29;;;;;;;6.88;4.25;;;;;;;21.93;48.59;94123.97;5124241;28;20019;-74
2022/08/09 03:10:57;;;;;;;6.72;3.95;;;;;;;21.92;48.72;94127.81;5122942;28;20309;-74
2022/08/09 03:13:24;;;;;;;9.13;3.70;;;;;;;21.89;49.23;94131.31;5124002;28;20027;-73
2022/08/09 03:15:50;;;;;;;6.35;3.90;;;;;;;21.88;48.96;94127.03;5123556;28;20213;-74
2022/08/09 03:18:17;;;;;;;5.45;3.53;;;;;;;21.87;48.88;94128.97;5123649;28;20046;-74
2022/08/09 03:20:43;;;;;;;8.30;4.05;;;;;;;21.85;49.08;94120.41;5123938;27;20313;-75
2022/08/09 03:23:11;;;;;;;6.75;4.25;;;;;;;21.80;49.00;94127.00;5123953;28;20024;-75
2022/08/09 03:25:41;;;;;;;8.68;4.28;;;;;;;21.77;49.98;94107.97;5123685;28;20047;-74
2022/08/09 03:28:07;;;;;;;5.70;3.83;;;;;;;21.75;50.11;94121.91;5123854;28;20221;-74
2022/08/09 03:30:33;;;;;;;7.13;3.72;;;;;;;21.74;50.08;94119.59;5123618;28;20027;-74
2022/08/09 03:33:00;;;;;;;10.90;4.20;;;;;;;21.72;50.37;94122.69;5123561;28;20078;-74
2022/08/09 03:35:26;;;;;;;8.95;4.20;;;;;;;21.72;50.91;94128.09;5123709;28;20019;-74
2022/08/09 03:37:52;;;;;;;7.97;3.78;;;;;;;21.71;51.02;94131.97;5123707;28;20427;-74
2022/08/09 03:40:19;;;;;;;13.73;4.78;;;;;;;21.68;51.40;94123.81;5123472;28;20023;-74
2022/08/09 03:42:45;;;;;;;7.90;3.92;;;;;;;21.66;51.32;94132.31;5123700;28;20042;-74
2022/08/09 03:45:10;;;;;;;8.65;4.15;;;;;;;21.62;51.52;94128.81;5123397;28;20310;-74
2022/08/09 03:47:36;;;;;;;13.90;3.83;;;;;;;21.58;51.66;94139.63;5123339;28;20117;-74
2022/08/09 03:50:05;;;;;;;6.07;3.63;;;;;;;21.55;51.85;94145.00;5123565;28;20106;-74
2022/08/09 03:52:31;;;;;;;8.65;4.65;;;;;;;21.52;52.27;94138.41;5123506;28;20027;-74
2022/08/09 03:55:01;;;;;;;7.10;4.63;;;;;;;21.49;52.08;94147.28;5123513;28;20023;-74
2022/08/09 03:57:26;;;;;;;7.30;3.55;;;;;;;21.46;51.24;94147.28;5123419;28;20030;-74
2022/08/09 03:59:52;;;;;;;7.88;3.80;;;;;;;21.44;51.66;94151.13;5123315;28;20086;-74
2022/08/09 04:02:19;;;;;;;6.65;3.95;;;;;;;21.43;50.92;94149.59;5123204;28;20118;-74
2022/08/09 04:04:45;;;;;;;9.20;3.85;;;;;;;21.43;50.56;94157.72;5123461;28;20015;-75
2022/08/09 04:07:11;;;;;;;7.20;4.38;;;;;;;21.37;50.94;94148.34;5123248;28;20019;-75
2022/08/09 04:09:36;;;;;;;10.75;4.15;;;;;;;21.31;51.42;94149.84;5123327;28;20043;-75
2022/08/09 04:12:08;;;;;;;10.25;3.60;;;;;;;21.28;51.68;94144.38;5123017;28;20020;-75
2022/08/09 04:14:35;;;;;;;5.07;3.42;;;;;;;21.27;51.54;94145.53;5122854;28;20032;-75
2022/08/09 04:17:00;;;;;;;10.27;4.18;;;;;;;21.28;51.59;94141.69;5121944;28;20367;-74
2022/08/09 04:19:26;;;;;;;9.85;3.60;;;;;;;21.27;51.90;94143.63;5123405;28;20024;-74
2022/08/09 04:21:51;;;;;;;5.47;3.50;;;;;;;21.29;51.96;94140.50;5123137;28;20024;-74
2022/08/09 04:24:16;;;;;;;7.03;3.83;;;;;;;21.32;51.81;94145.97;5123072;28;20038;-75
2022/08/09 04:26:42;;;;;;;8.55;3.67;;;;;;;21.37;51.41;94144.84;5124397;28;20259;-74
2022/08/09 04:29:07;;;;;;;8.73;4.40;;;;;;;21.42;51.39;94147.22;5127069;28;20225;-74
2022/08/09 04:31:33;;;;;;;7.75;4.82;;;;;;;21.46;51.35;94147.28;5127104;28;20016;-74
2022/08/09 04:33:59;;;;;;;6.32;3.65;;;;;;;21.50;51.44;94145.38;5127095;28;20016;-74
2022/08/09 04:36:26;;;;;;;10.18;4.32;;;;;;;21.56;50.86;94155.50;5127000;28;20046;-74
2022/08/09 04:38:53;;;;;;;8.75;3.92;;;;;;;21.57;51.09;94148.13;5126933;28;20030;-73
2022/08/09 04:41:20;;;;;;;11.55;4.15;;;;;;;21.61;51.24;94159.78;5126765;27;20019;-75
2022/08/09 04:43:45;;;;;;;10.13;4.03;;;;;;;21.62;51.78;94155.94;5126806;28;20020;-76
2022/08/09 04:46:10;;;;;;;8.95;3.80;;;;;;;21.65;51.95;94166.00;5126774;28;20058;-76
2022/08/09 04:48:36;;;;;;;6.72;3.78;;;;;;;21.72;51.82;94165.31;5126591;28;20020;-76
2022/08/09 04:51:01;;;;;;;9.77;3.83;;;;;;;21.76;51.86;94166.88;5126679;28;20095;-75
2022/08/09 04:53:27;;;;;;;11.25;4.18;;;;;;;21.83;51.20;94172.34;5126805;28;20049;-75
2022/08/09 04:55:53;;;;;;;8.60;4.13;;;;;;;21.93;51.55;94170.09;5126471;28;20034;-75
2022/08/09 04:58:18;;;;;;;9.30;4.00;;;;;;;21.94;51.55;94172.44;5126536;28;20031;-75
2022/08/09 05:00:44;;;;;;;10.55;3.97;;;;;;;22.01;51.59;94174.41;5126420;28;20020;-75
2022/08/09 05:03:09;;;;;;;8.55;3.90;;;;;;;22.04;50.96;94169.00;5125840;28;20023;-75
2022/08/09 05:05:34;;;;;;;24.20;5.40;;;;;;;22.08;52.41;94160.88;5126197;28;20032;-75
2022/08/09 05:08:00;;;;;;;46.85;6.57;;;;;;;22.07;51.79;94163.97;5126071;28;20032;-74
2022/08/09 05:10:26;;;;;;;23.67;4.68;;;;;;;22.11;50.76;94170.22;5126564;28;20050;-74
2022/08/09 05:12:51;;;;;;;20.20;5.50;;;;;;;22.07;50.38;94178.31;5126233;28;20124;-73
2022/08/09 05:15:17;;;;;;;16.38;4.97;;;;;;;22.07;50.47;94169.41;5125923;28;20047;-73
2022/08/09 05:17:42;;;;;;;22.42;5.47;;;;;;;22.07;51.01;94180.28;5125998;28;20238;-73
2022/08/09 05:20:08;;;;;;;20.33;5.18;;;;;;;22.06;51.04;94175.97;5125907;28;20050;-73
2022/08/09 05:22:34;;;;;;;13.88;5.60;;;;;;;22.03;50.83;94172.88;5126197;27;20027;-73
2022/08/09 05:25:00;;;;;;;22.90;6.13;;;;;;;22.04;50.99;94176.34;5125944;28;20077;-73
2022/08/09 05:27:26;;;;;;;15.90;5.15;;;;;;;22.04;51.24;94182.59;5125881;28;20329;-72
2022/08/09 05:29:51;;;;;;;17.67;6.15;;;;;;;22.08;51.60;94185.28;5125765;28;20289;-73
2022/08/09 05:32:16;;;;;;;15.20;5.07;;;;;;;22.08;51.48;94182.59;5125650;28;20015;-73
2022/08/09 05:34:42;;;;;;;15.85;5.35;;;;;;;22.14;51.88;94189.22;5125637;28;20019;-73
2022/08/09 05:37:07;;;;;;;9.55;5.35;;;;;;;22.14;51.64;94199.31;5125290;28;20113;-74
2022/08/09 05:39:38;;;;;;;11.13;5.00;;;;;;;22.20;51.11;94193.13;5125797;28;20042;-75
2022/08/09 05:42:04;;;;;;;16.70;5.28;;;;;;;22.23;51.64;94189.69;5125625;28;20109;-77
2022/08/09 05:44:29;;;;;;;12.18;5.45;;;;;;;22.23;50.75;94197.84;5125920;28;20337;-77
2022/08/09 05:46:55;;;;;;;7.20;4.80;;;;;;;22.26;51.34;94193.59;5126152;28;20024;-78
2022/08/09 05:49:20;;;;;;;13.88;4.78;;;;;;;22.33;50.69;94195.59;5125743;28;20039;-78
2022/08/09 05:51:46;;;;;;;12.40;5.55;;;;;;;22.37;49.88;94196.38;5125683;28;20020;-78
2022/08/09 05:54:11;;;;;;;8.73;4.90;;;;;;;22.40;50.06;94193.66;5125628;28;20345;-79
2022/08/09 05:56:37;;;;;;;5.95;4.72;;;;;;;22.40;48.58;94196.38;5125589;28;20024;-77
2022/08/09 05:59:02;;;;;;;12.27;5.38;;;;;;;22.48;49.25;94180.13;5125443;27;20206;-77
2022/08/09 06:01:28;;;;;;;14.05;4.57;;;;;;;22.58;49.05;94193.75;5125790;28;20051;-79
2022/08/09 06:03:55;;;;;;;16.08;4.97;;;;;;;22.70;49.05;94187.22;5125220;28;20095;-78
2022/08/09 06:06:22;;;;;;;10.75;5.70;;;;;;;22.79;48.91;94189.56;5123664;28;20064;-80
2022/08/09 06:08:48;;;;;;;9.38;5.38;;;;;;;22.85;48.86;94190.75;5124045;28;20023;-79
2022/08/09 06:11:14;;;;;;;13.40;5.85;;;;;;;22.91;47.75;94191.94;5124863;28;20023;-79
2022/08/09 06:13:39;;;;;;;23.23;10.68;;;;;;;22.86;48.20;94186.09;5124874;27;20265;-79
2022/08/09 06:16:05;;;;;;;13.52;7.13;;;;;;;22.96;49.46;94186.13;5125166;28;20018;-79
2022/08/09 06:18:31;;;;;;;13.07;7.32;;;;;;;23.07;48.74;94174.53;5124864;28;20330;-80
2022/08/09 06:20:56;;;;;;;11.15;6.40;;;;;;;23.09;47.50;94174.94;5125352;28;20027;-81
2022/08/09 06:23:23;;;;;;;13.23;6.00;;;;;;;23.17;47.66;94179.22;5125080;28;20015;-81
2022/08/09 06:25:49;;;;;;;10.90;6.68;;;;;;;23.27;47.44;94177.69;5124968;28;20068;-80
2022/08/09 06:28:15;;;;;;;14.02;6.57;;;;;;;23.30;47.38;94185.06;5125009;27;20199;-77
2022/08/09 06:30:41;;;;;;;19.13;6.20;;;;;;;23.31;47.71;94183.91;5124859;28;20098;-77
2022/08/09 06:33:07;;;;;;;12.75;6.15;;;;;;;23.41;47.78;94183.16;5124611;28;20039;-78
2022/08/09 06:35:33;;;;;;;12.70;6.40;;;;;;;23.47;47.99;94175.34;5124995;28;20061;-76
2022/08/09 06:37:58;;;;;;;20.85;7.60;;;;;;;23.54;46.75;94178.09;5124872;27;20015;-76
2022/08/09 06:40:23;;;;;;;16.10;8.00;;;;;;;23.50;46.74;94180.81;5124598;28;20015;-76
2022/08/09 06:42:49;;;;;;;12.95;7.05;;;;;;;23.55;46.70;94171.47;5124460;28;20023;-76
2022/08/09 06:45:14;;;;;;;18.60;7.90;;;;;;;23.67;46.53;94179.28;5124612;28;20015;-76
2022/08/09 06:47:40;;;;;;;20.48;7.50;;;;;;;23.74;47.10;94189.38;5124701;28;20016;-76
2022/08/09 06:50:06;;;;;;;12.73;7.07;;;;;;;23.78;46.23;94184.75;5123655;28;20252;-76
2022/08/09 06:52:32;;;;;;;17.25;8.35;;;;;;;23.75;45.94;94180.03;5124426;28;20020;-76
2022/08/09 06:54:57;;;;;;;14.80;7.68;;;;;;;23.79;45.85;94183.56;5124621;28;20052;-75
2022/08/09 06:57:23;;;;;;;20.20;9.40;;;;;;;23.80;45.08;94172.28;5124445;28;20061;-76
2022/08/09 06:59:48;;;;;;;21.33;10.32;;;;;;;23.90;45.07;94192.50;5124249;28;20023;-75
2022/08/09 07:02:14;;;;;;;24.42;11.05;;;;;;;23.95;43.85;94186.66;5124118;28;20060;-75
2022/08/09 07:04:39;;;;;;;23.13;10.75;;;;;;;24.01;43.94;94182.38;5124161;28;20056;-75
2022/08/09 07:07:05;;;;;;;21.23;10.85;;;;;;;24.08;44.12;94180.81;5122758;28;20041;-75
2022/08/09 07:09:30;;;;;;;27.50;11.20;;;;;;;24.13;43.46;94183.91;5124151;28;20015;-75
2022/08/09 07:11:56;;;;;;;17.10;10.90;;;;;;;24.19;43.52;94168.72;5124008;28;20190;-74
2022/08/09 07:14:21;;;;;;;19.25;11.43;;;;;;;24.27;44.16;94174.94;5123956;28;20031;-74
2022/08/09 07:16:46;;;;;;;18.60;11.93;;;;;;;24.36;43.09;94167.16;5122688;28;20064;-75
2022/08/09 07:19:12;;;;;;;17.50;9.45;;;;;;;24.49;41.87;94185.78;5124172;28;20094;-74
2022/08/09 07:21:39;;;;;;;22.55;10.00;;;;;;;24.56;41.38;94172.94;5124075;28;20016;-74
2022/08/09 07:24:05;;;;;;;22.05;10.15;;;;;;;24.67;41.29;94177.56;5123766;28;20046;-75
2022/08/09 07:26:31;;;;;;;19.63;10.10;;;;;;;24.77;41.62;94176.75;5123808;28;20027;-74
2022/08/09 07:28:57;;;;;;;19.98;9.13;;;;;;;24.79;41.39;94168.94;5123914;28;20302;-75
2022/08/09 07:31:22;;;;;;;20.48;9.75;;;;;;;24.88;40.16;94174.00;5123819;28;20019;-75
2022/08/09 07:33:48;;;;;;;17.77;8.45;;;;;;;24.85;41.02;94172.81;5123457;28;20023;-74
2022/08/09 07:36:14;;;;;;;17.13;8.93;;;;;;;24.98;40.40;94171.19;5123643;28;20065;-74
2022/08/09 07:38:40;;;;;;;16.38;7.85;;;;;;;25.05;40.13;94185.97;5123542;28;20195;-74
2022/08/09 07:41:05;;;;;;;17.67;6.72;;;;;;;25.10;39.64;94174.66;5123827;28;20092;-75
2022/08/09 07:43:31;;;;;;;16.15;8.32;;;;;;;25.20;38.62;94182.00;5123906;28;20087;-75
2022/08/09 07:45:56;;;;;;;13.50;7.82;;;;;;;25.28;38.57;94180.81;5123572;28;20242;-75
2022/08/09 07:48:22;;;;;;;16.40;6.32;;;;;;;25.14;38.78;94181.63;5123718;28;20094;-75
2022/08/09 07:50:48;;;;;;;13.73;8.27;;;;;;;25.23;38.89;94181.22;5123560;28;20202;-75
2022/08/09 07:53:14;;;;;;;12.52;6.25;;;;;;;25.28;38.43;94182.75;5123348;28;20268;-75
2022/08/09 07:55:40;;;;;;;14.23;6.00;;;;;;;25.39;39.07;94186.19;5123624;28;20027;-75
2022/08/09 07:58:05;;;;;;;13.77;6.45;;;;;;;25.51;38.50;94184.94;5123116;28;20068;-75
2022/08/09 08:00:31;;;;;;;16.73;5.70;;;;;;;25.59;39.01;94183.72;5123182;28;20026;-75
2022/08/09 08:02:58;;;;;;;8.15;5.28;;;;;;;25.71;38.64;94183.22;5123437;28;20093;-74
2022/08/09 08:05:24;;;;;;;8.27;5.15;;;;;;;25.72;36.78;94173.84;5123100;28;20020;-75
2022/08/09 08:07:50;;;;;;;9.15;4.75;;;;;;;25.81;37.47;94181.59;5123363;28;20035;-76
2022/08/09 08:10:17;;;;;;;9.50;5.28;;;;;;;25.76;36.86;94180.06;5123208;28;20020;-73
2022/08/09 08:12:43;;;;;;;17.70;5.13;;;;;;;25.87;36.19;94179.19;5123185;28;20371;-74
2022/08/09 08:15:09;;;;;;;19.55;4.85;;;;;;;25.92;36.23;94173.34;5123232;28;20282;-74
2022/08/09 08:17:35;;;;;;;17.17;5.65;;;;;;;25.92;37.06;94176.06;5123124;28;20043;-73
2022/08/09 08:20:01;;;;;;;12.35;3.97;;;;;;;25.99;36.00;94171.31;5123250;28;20023;-75
2022/08/09 08:22:26;;;;;;;7.03;3.95;;;;;;;26.06;36.56;94161.53;5123073;28;20069;-74
2022/08/09 08:24:54;;;;;;;12.77;3.90;;;;;;;26.08;36.56;94168.13;5123045;28;20019;-73
2022/08/09 08:27:23;;;;;;;19.50;4.45;;;;;;;26.19;36.23;94163.31;5123092;28;20028;-73
2022/08/09 08:29:49;;;;;;;6.60;3.58;;;;;;;26.21;34.41;94165.66;5123181;28;20092;-75
2022/08/09 08:32:15;;;;;;;11.32;3.72;;;;;;;26.30;33.57;94159.72;5123175;28;20087;-76
2022/08/09 08:34:41;;;;;;;7.82;3.53;;;;;;;26.36;34.17;94160.81;5123071;28;20226;-74
2022/08/09 08:37:06;;;;;;;15.60;4.47;;;;;;;26.48;35.77;94157.56;5122917;28;20027;-75
2022/08/09 08:39:32;;;;;;;7.05;3.35;;;;;;;26.55;34.32;94156.69;5121983;28;20090;-74
2022/08/09 08:41:58;;;;;;;6.63;3.08;;;;;;;26.59;32.52;94155.50;5123215;28;20047;-74
2022/08/09 08:44:26;;;;;;;9.75;3.65;;;;;;;26.69;33.28;94153.06;5122952;28;20277;-75
2022/08/09 08:46:52;;;;;;;9.32;3.00;;;;;;;26.79;32.01;94143.94;5123002;28;20040;-74
2022/08/09 08:49:18;;;;;;;7.88;3.65;;;;;;;26.84;33.40;94140.75;5123007;28;20026;-74
2022/08/09 08:51:43;;;;;;;8.95;3.53;;;;;;;26.95;32.77;94146.09;5122830;28;20329;-74
2022/08/09 08:54:10;;;;;;;6.53;3.25;;;;;;;27.04;31.58;94149.06;5122837;28;20024;-75
2022/08/09 08:56:37;;;;;;;16.20;2.70;;;;;;;27.15;29.45;94148.91;5122951;28;20023;-74
2022/08/09 08:59:05;;;;;;;9.63;2.78;;;;;;;27.22;30.41;94148.84;5123006;28;20024;-74
2022/08/09 09:01:32;;;;;;;7.32;2.60;;;;;;;27.23;28.96;94142.19;5122964;28;20374;-74
2022/08/09 09:03:58;;;;;;;13.05;3.08;;;;;;;27.32;30.91;94131.50;5123103;28;20028;-75
2022/08/09 09:06:25;;;;;;;7.90;3.20;;;;;;;27.38;31.78;94131.81;5123023;28;20032;-75
2022/08/09 09:08:51;;;;;;;11.95;3.13;;;;;;;27.44;31.06;94127.44;5122845;28;20028;-75
2022/08/09 09:11:17;;;;;;;8.23;2.13;;;;;;;27.55;28.70;94127.25;5122852;28;20015;-75
2022/08/09 09:13:43;;;;;;;8.65;2.75;;;;;;;27.62;27.98;94121.66;5125303;28;20031;-75
2022/08/09 09:16:08;;;;;;;4.85;2.67;;;;;;;27.66;28.02;94122.38;5126290;28;20050;-75
2022/08/09 09:18:34;;;;;;;3.95;2.22;;;;;;;27.70;27.80;94125.03;5126017;28;20043;-75
2022/08/09 09:20:59;;;;;;;12.80;2.75;;;;;;;27.73;26.81;94116.78;5126178;28;20101;-75
2022/08/09 09:23:43;;;;;;;5.72;3.33;;;;;;;27.79;28.49;94112.38;5126315;28;20039;-75
2022/08/09 09:26:09;;;;;;;11.23;2.70;;;;;;;27.86;27.44;94113.44;5126203;28;20021;-75
2022/08/09 09:28:36;;;;;;;9.88;2.00;;;;;;;27.96;26.24;94107.78;5126202;28;20229;-75
2022/08/09 09:31:04;;;;;;;6.38;1.92;;;;;;;28.06;24.96;94100.56;5125995;27;20039;-75
2022/08/09 09:33:33;;;;;;;4.53;2.10;;;;;;;28.09;24.37;94107.97;5126219;28;20027;-75
2022/08/09 09:36:04;;;;;;;8.55;2.40;;;;;;;28.14;25.59;94110.22;5126136;28;20022;-75
2022/08/09 09:38:45;;;;;;;7.28;3.00;;;;;;;28.26;25.68;94114.31;5126099;28;20102;-76
2022/08/09 09:41:25;;;;;;;7.15;2.80;;;;;;;28.36;25.51;94102.34;5125831;28;20373;-76
2022/08/09 09:43:52;;;;;;;8.63;3.47;;;;;;;28.42;25.96;94106.16;5125814;28;20031;-76
2022/08/09 09:46:17;;;;;;;6.53;1.92;;;;;;;28.55;23.44;94100.06;5125751;28;20022;-76
2022/08/09 09:49:01;;;;;;;8.95;4.13;;;;;;;28.57;27.18;94101.19;5125685;28;20027;-76
2022/08/09 09:51:30;;;;;;;4.53;2.30;;;;;;;28.67;26.52;94096.69;5125699;28;20015;-76
2022/08/09 09:54:06;;;;;;;7.38;2.10;;;;;;;28.78;23.76;94089.00;5125288;28;20091;-76
2022/08/09 09:56:34;;;;;;;8.02;2.45;;;;;;;28.86;25.00;94097.84;5125493;28;20091;-76
2022/08/09 09:59:00;;;;;;;4.82;1.92;;;;;;;28.96;24.03;94088.63;5125562;28;20057;-75
2022/08/09 10:01:26;;;;;;;7.28;1.92;;;;;;;29.11;24.01;94080.09;5124700;28;20020;-74
2022/08/09 10:03:54;;;;;;;3.58;2.05;;;;;;;29.23;22.72;94078.63;5124408;28;20184;-74
2022/08/09 10:06:20;;;;;;;4.80;2.17;;;;;;;29.29;23.26;94076.91;5125235;28;20336;-75
2022/08/09 10:08:47;;;;;;;8.23;1.75;;;;;;;29.39;21.90;94076.69;5125356;28;20027;-75
2022/08/09 10:11:38;;;;;;;9.55;2.10;;;;;;;29.44;22.58;94078.13;5125201;28;20092;-74
2022/08/09 10:14:05;;;;;;;4.30;2.10;;;;;;;29.45;22.64;94085.16;5125190;28;20075;-76
2022/08/09 10:16:37;;;;;;;4.90;2.00;;;;;;;29.44;22.45;94082.84;5124973;28;20222;-75
2022/08/09 10:19:08;;;;;;;6.55;1.67;;;;;;;29.37;22.39;94084.56;5124155;28;20024;-76
2022/08/09 10:21:35;;;;;;;9.77;1.97;;;;;;;29.38;22.66;94086.09;5125194;28;20027;-76
2022/08/09 10:24:03;;;;;;;6.70;1.60;;;;;;;29.45;22.20;94087.13;5123924;28;20333;-76
2022/08/09 10:26:29;;;;;;;2.42;1.42;;;;;;;29.50;20.97;94079.16;5124896;28;20023;-75
2022/08/09 10:28:56;;;;;;;6.38;2.10;;;;;;;29.48;21.66;94089.78;5124887;28;20023;-75
2022/08/09 10:31:22;;;;;;;3.67;1.50;;;;;;;29.50;20.17;94083.88;5123723;28;20072;-75
2022/08/09 10:33:49;;;;;;;5.50;1.65;;;;;;;29.47;20.71;94087.47;5124849;28;20035;-76
2022/08/09 10:36:15;;;;;;;8.93;1.58;;;;;;;29.34;22.68;94084.66;5124769;27;20330;-76
2022/08/09 10:38:44;;;;;;;11.77;2.45;;;;;;;29.28;22.96;94075.38;5124700;28;20027;-76
2022/08/09 10:41:11;;;;;;;7.40;1.80;;;;;;;29.37;23.57;94079.09;5124623;28;20028;-75
2022/08/09 10:43:42;;;;;;;7.55;2.38;;;;;;;29.44;22.94;94082.84;5124877;28;20068;-76
2022/08/09 10:46:25;;;;;;;17.90;4.27;;;;;;;29.49;22.42;94079.59;5124510;28;20045;-75
2022/08/09 10:49:25;;;;;;;11.25;1.40;;;;;;;29.57;20.97;94083.69;5124764;28;20039;-75
2022/08/09 10:52:08;;;;;;;6.88;1.40;;;;;;;29.61;20.72;94084.38;5124511;28;20066;-75
2022/08/09 10:54:34;;;;;;;4.35;1.63;;;;;;;29.58;20.73;94066.78;5124463;28;20027;-76
2022/08/09 10:57:10;;;;;;;5.03;1.67;;;;;;;29.52;21.88;94062.25;5123465;28;20035;-75
2022/08/09 10:59:37;;;;;;;4.80;1.70;;;;;;;29.61;22.84;94059.66;5124551;28;20035;-74
2022/08/09 11:02:07;;;;;;;11.18;1.67;;;;;;;29.74;20.44;94063.28;5124475;28;20262;-75
2022/08/09 11:04:34;;;;;;;4.65;1.60;;;;;;;29.72;20.55;94068.44;5124551;28;20020;-75
2022/08/09 11:07:00;;;;;;;7.78;2.22;;;;;;;29.82;20.22;94074.06;5124404;28;20214;-76
2022/08/09 11:09:37;;;;;;;7.72;1.77;;;;;;;29.86;20.72;94072.00;5124162;28;20034;-75
2022/08/09 11:12:20;;;;;;;8.68;1.55;;;;;;;29.92;21.13;94078.53;5124296;28;20023;-74
2022/08/09 11:14:54;;;;;;;7.60;2.00;;;;;;;29.84;21.50;94080.72;5123979;28;20028;-75
2022/08/09 11:17:20;;;;;;;8.38;2.17;;;;;;;29.92;22.46;94081.28;5123990;28;20168;-74
2022/08/09 11:20:00;;;;;;;13.40;2.80;;;;;;;30.00;22.07;94077.94;5122697;28;20058;-75
2022/08/09 11:22:43;;;;;;;5.88;2.25;;;;;;;30.09;23.35;94077.28;5123968;28;20229;-74
2022/08/09 11:25:17;;;;;;;7.68;2.08;;;;;;;30.20;23.84;94072.28;5123876;28;20024;-75
2022/08/09 11:27:53;;;;;;;5.28;1.83;;;;;;;30.38;23.28;94071.03;5123795;28;20050;-75
2022/08/09 11:30:22;;;;;;;5.60;1.95;;;;;;;30.50;22.80;94073.06;5123713;28;20103;-75
2022/08/09 11:33:13;;;;;;;4.45;1.85;;;;;;;30.66;22.94;94074.19;5123752;28;20337;-74